シドニー の空港の天気 - METARとTAF

シドニー国際空港 ( YSSY / SYD ) - オーストラリア ニューサウスウェールズ州、Mascot
飛行場実況気象(Metar)
観測時間01/23 19:00 AEDT (01/23 08:00 UTC)
風向・風速北 8m/s
視程10km以上
天気現象
なし
気温28℃
湿度62%
気圧1009hPa
METARYSSY 230800Z 01015KT CAVOK 28/20 Q1009
過去の天気等 Google飛行場航空写真 Wunderground天気予報

過去48時間のMETAR

飛行場予報(TAF)
発表時間: 1/23 16:10 AEDT (1/23 05:10 UTC)
予報対象時間: 23日17時 AEDT ~ 24日23時 AEDT
風向・風速北北東 9m/s
視程10km以上
なし
23日21時 AEDT から
風向・風速北北東 6m/s
視程10km以上
少しの雲 雲底高度 460m
全天の4割程度の雲 雲底高度 4,570m
24日10時 AEDT から
風向・風速北東 9m/s
視程10km以上
なし
TAF YSSY 230510Z 2306/2412 03018KT CAVOK
FM231000 02012KT 9999 FEW015 SCT150
FM232300 05018KT CAVOK